Time;durP1;ratioP1;P1;durP2;ratioP2;P2;SDS_P1;SDS_P2;PMS_P1;PMS_P2;Temp;Humidity;BMP_temperature;BMP_pressure;BME280_temperature;BME280_humidity;BME280_pressure;Samples;Min_cycle;Max_cycle;Signal;HPM_P1;HPM_P2
2021/03/11 00:02:20;;;;;;;27.80;15.47;;;6.30;99.90;;;;;;5138099;27;20232;-67
2021/03/11 00:04:45;;;;;;;26.10;16.17;;;6.30;99.90;;;;;;5137535;27;20245;-65
2021/03/11 00:07:11;;;;;;;32.50;18.70;;;6.30;99.90;;;;;;5136832;27;20189;-65
2021/03/11 00:09:37;;;;;;;31.17;18.43;;;6.30;99.90;;;;;;5137836;27;20517;-65
2021/03/11 00:12:05;;;;;;;28.07;15.90;;;6.30;99.90;;;;;;5137677;27;20171;-66
2021/03/11 00:14:32;;;;;;;29.70;16.92;;;6.30;99.90;;;;;;5137749;27;20194;-66
2021/03/11 00:16:58;;;;;;;26.35;15.32;;;6.20;99.90;;;;;;5137738;27;20179;-66
2021/03/11 00:19:23;;;;;;;29.77;18.60;;;6.20;99.90;;;;;;5136405;27;20619;-66
2021/03/11 00:21:49;;;;;;;34.97;17.73;;;6.10;99.90;;;;;;5137327;27;20757;-66
2021/03/11 00:24:15;;;;;;;29.10;17.27;;;6.20;99.90;;;;;;5136960;27;20202;-66
2021/03/11 00:26:41;;;;;;;29.77;15.30;;;6.20;99.90;;;;;;5136155;27;20498;-67
2021/03/11 00:29:06;;;;;;;28.40;16.20;;;6.20;99.90;;;;;;5136963;27;20171;-69
2021/03/11 00:31:32;;;;;;;33.07;16.90;;;6.20;99.90;;;;;;5137516;27;20555;-66
2021/03/11 00:33:58;;;;;;;35.63;18.27;;;6.20;99.90;;;;;;5137304;27;20499;-66
2021/03/11 00:36:23;;;;;;;32.57;16.40;;;6.20;99.90;;;;;;5135831;27;20187;-67
2021/03/11 00:38:49;;;;;;;29.80;16.87;;;6.10;99.90;;;;;;5137090;27;20186;-65
2021/03/11 00:41:15;;;;;;;32.27;16.70;;;6.10;99.90;;;;;;5136858;27;20176;-67
2021/03/11 00:43:40;;;;;;;32.30;17.57;;;6.20;99.90;;;;;;5136893;27;20240;-66
2021/03/11 00:46:06;;;;;;;28.43;15.13;;;6.10;99.90;;;;;;5136963;27;20247;-66
2021/03/11 00:48:31;;;;;;;27.17;15.20;;;6.10;99.90;;;;;;5137198;27;20625;-66
2021/03/11 00:50:57;;;;;;;36.13;18.33;;;6.10;99.90;;;;;;5136801;27;20198;-66
2021/03/11 00:53:22;;;;;;;29.10;16.40;;;6.10;99.90;;;;;;5136159;27;20192;-66
2021/03/11 00:55:48;;;;;;;24.43;16.73;;;6.10;99.90;;;;;;5136597;27;20234;-66
2021/03/11 00:58:13;;;;;;;25.23;16.40;;;6.10;99.90;;;;;;5136348;27;20506;-65
2021/03/11 01:00:39;;;;;;;30.40;17.20;;;6.10;99.90;;;;;;5136181;27;20234;-65
2021/03/11 01:03:05;;;;;;;29.40;17.17;;;6.10;99.90;;;;;;5136808;28;20191;-66
2021/03/11 01:05:32;;;;;;;32.50;16.63;;;6.10;99.90;;;;;;5136986;27;20502;-66
2021/03/11 01:07:57;;;;;;;31.63;18.10;;;6.10;99.90;;;;;;5137316;27;20180;-66
2021/03/11 01:10:23;;;;;;;26.70;16.93;;;6.10;99.90;;;;;;5136576;28;20252;-66
2021/03/11 01:12:49;;;;;;;26.50;16.27;;;6.20;99.90;;;;;;5137338;27;20501;-66
2021/03/11 01:15:15;;;;;;;26.33;16.20;;;6.20;99.90;;;;;;5136647;28;20174;-65
2021/03/11 01:17:41;;;;;;;27.23;16.05;;;6.10;99.90;;;;;;5137312;27;20493;-65
2021/03/11 01:20:19;;;;;;;30.83;16.52;;;6.10;99.90;;;;;;5136972;27;20264;-66
2021/03/11 01:22:45;;;;;;;24.15;14.90;;;6.10;99.90;;;;;;5136979;27;20197;-66
2021/03/11 01:25:11;;;;;;;25.33;15.73;;;6.00;99.90;;;;;;5136849;27;20181;-65
2021/03/11 01:27:40;;;;;;;24.45;15.13;;;6.00;99.90;;;;;;5136831;27;20432;-67
2021/03/11 01:30:07;;;;;;;27.15;15.05;;;6.00;99.90;;;;;;5136683;27;20654;-68
2021/03/11 01:32:33;;;;;;;26.48;17.77;;;6.00;99.90;;;;;;5136405;27;20182;-66
2021/03/11 01:35:02;;;;;;;28.87;16.60;;;6.00;99.90;;;;;;5136733;28;20182;-67
2021/03/11 01:37:28;;;;;;;22.20;13.70;;;5.90;99.90;;;;;;5135726;28;20181;-67
2021/03/11 01:39:54;;;;;;;26.10;14.53;;;6.00;99.90;;;;;;5136307;28;20269;-71
2021/03/11 01:42:28;;;;;;;23.77;14.27;;;5.90;99.90;;;;;;5136358;28;20216;-67
2021/03/11 01:44:54;;;;;;;27.52;14.88;;;6.00;99.90;;;;;;5135105;28;20383;-66
2021/03/11 01:47:20;;;;;;;26.15;15.85;;;5.90;99.90;;;;;;5135331;28;20657;-65
2021/03/11 01:49:49;;;;;;;25.60;14.73;;;5.90;99.90;;;;;;5136392;28;20282;-66
2021/03/11 01:52:19;;;;;;;24.17;15.50;;;5.90;99.90;;;;;;5136517;28;20450;-66
2021/03/11 01:54:45;;;;;;;26.73;14.48;;;5.90;99.90;;;;;;5134964;28;20183;-67
2021/03/11 01:57:12;;;;;;;21.05;14.02;;;6.00;99.90;;;;;;5135898;27;20182;-65
2021/03/11 01:59:41;;;;;;;26.83;15.05;;;6.00;99.90;;;;;;5136314;27;20648;-67
2021/03/11 02:02:13;;;;;;;21.20;11.95;;;6.00;99.90;;;;;;5136272;27;20200;-68
2021/03/11 02:04:39;;;;;;;20.58;13.15;;;6.00;99.90;;;;;;5135659;27;20210;-67
2021/03/11 02:07:08;;;;;;;23.20;14.27;;;6.00;99.90;;;;;;5135124;28;20195;-68
2021/03/11 02:09:42;;;;;;;24.67;14.73;;;5.90;99.90;;;;;;5135100;27;20650;-66
2021/03/11 02:12:32;;;;;;;20.60;13.10;;;6.00;99.90;;;;;;5139661;27;20195;-66
2021/03/11 02:15:22;;;;;;;23.00;12.93;;;5.90;99.90;;;;;;5140112;27;20174;-66
2021/03/11 02:17:59;;;;;;;23.98;14.18;;;6.00;99.90;;;;;;5124803;27;20526;-66
2021/03/11 02:20:43;;;;;;;21.35;13.52;;;6.00;99.90;;;;;;5139538;27;20816;-65
2021/03/11 02:23:27;;;;;;;18.55;12.15;;;5.90;99.90;;;;;;5139426;27;20480;-67
2021/03/11 02:26:19;;;;;;;22.13;14.18;;;5.90;99.90;;;;;;5139321;27;20189;-65
2021/03/11 02:29:01;;;;;;;25.02;14.30;;;5.80;99.90;;;;;;5140203;27;20479;-65
2021/03/11 02:31:31;;;;;;;20.95;14.00;;;5.80;99.90;;;;;;5140434;27;20207;-65
2021/03/11 02:33:58;;;;;;;20.98;12.90;;;5.70;99.90;;;;;;5139776;27;20199;-65
2021/03/11 02:36:25;;;;;;;24.33;14.70;;;5.70;99.90;;;;;;5140395;27;20183;-66
2021/03/11 02:38:55;;;;;;;27.63;15.73;;;5.70;99.90;;;;;;5138989;27;20201;-66
2021/03/11 02:41:26;;;;;;;22.85;13.57;;;5.70;99.90;;;;;;5140581;27;20191;-66
2021/03/11 02:43:53;;;;;;;23.05;12.82;;;5.70;99.90;;;;;;5139694;27;20239;-66
2021/03/11 02:46:20;;;;;;;21.55;14.38;;;5.70;99.90;;;;;;5139431;27;20176;-66
2021/03/11 02:48:48;;;;;;;22.33;12.90;;;5.70;99.90;;;;;;5139114;27;20188;-66
2021/03/11 02:51:15;;;;;;;22.52;14.30;;;5.70;99.90;;;;;;5140113;27;20740;-66
2021/03/11 02:53:41;;;;;;;22.83;13.07;;;5.70;99.90;;;;;;5139541;27;20276;-66
2021/03/11 02:56:08;;;;;;;27.33;15.20;;;5.70;99.90;;;;;;5139873;27;20207;-66
2021/03/11 02:58:35;;;;;;;21.45;14.02;;;5.70;99.90;;;;;;5139741;27;20181;-66
2021/03/11 03:01:01;;;;;;;24.13;16.15;;;5.80;99.90;;;;;;5137562;27;20179;-66
2021/03/11 03:03:29;;;;;;;26.48;14.77;;;5.80;99.90;;;;;;5138269;27;20180;-66
2021/03/11 03:05:57;;;;;;;25.50;14.63;;;5.80;99.90;;;;;;5138748;27;20196;-65
2021/03/11 03:08:24;;;;;;;22.33;13.48;;;5.80;99.90;;;;;;5138848;27;20180;-65
2021/03/11 03:10:53;;;;;;;20.05;12.68;;;5.90;99.90;;;;;;5139353;27;20221;-66
2021/03/11 03:13:20;;;;;;;21.48;11.98;;;5.90;99.90;;;;;;5138335;27;20195;-65
2021/03/11 03:15:47;;;;;;;20.50;13.48;;;5.80;99.90;;;;;;5139055;27;20639;-66
2021/03/11 03:18:14;;;;;;;22.42;13.23;;;5.90;99.90;;;;;;5139414;27;20529;-66
2021/03/11 03:20:41;;;;;;;20.10;12.93;;;5.80;99.90;;;;;;5138129;27;20597;-65
2021/03/11 03:23:07;;;;;;;20.70;13.00;;;5.80;99.90;;;;;;5137949;27;20290;-65
2021/03/11 03:25:33;;;;;;;20.95;11.80;;;5.90;99.90;;;;;;5138529;27;20184;-65
2021/03/11 03:28:00;;;;;;;19.17;11.37;;;5.90;99.90;;;;;;5138696;27;20208;-65
2021/03/11 03:30:26;;;;;;;21.30;12.50;;;5.90;99.90;;;;;;5139213;27;20822;-65
2021/03/11 03:32:53;;;;;;;15.27;10.55;;;5.90;99.90;;;;;;5138476;27;20198;-65
2021/03/11 03:35:21;;;;;;;17.80;11.38;;;6.00;99.90;;;;;;5138180;27;20169;-65
2021/03/11 03:37:47;;;;;;;16.08;11.75;;;6.00;99.90;;;;;;5139108;27;20184;-65
2021/03/11 03:40:14;;;;;;;17.77;11.18;;;6.00;99.90;;;;;;5138207;27;20178;-65
2021/03/11 03:42:44;;;;;;;22.63;11.90;;;6.00;99.90;;;;;;5138592;27;20176;-65
2021/03/11 03:45:31;;;;;;;19.05;12.82;;;6.00;99.90;;;;;;5137994;27;20236;-65
2021/03/11 03:48:00;;;;;;;17.50;12.60;;;6.10;99.90;;;;;;5138897;27;20681;-66
2021/03/11 03:50:26;;;;;;;15.68;10.05;;;6.10;99.90;;;;;;5138891;27;20220;-66
2021/03/11 03:52:53;;;;;;;22.40;13.23;;;6.10;99.90;;;;;;5137128;27;20176;-66
2021/03/11 03:55:20;;;;;;;17.80;12.60;;;6.10;99.90;;;;;;5137865;27;20643;-66
2021/03/11 03:57:50;;;;;;;17.77;11.93;;;6.10;99.90;;;;;;5137591;27;20215;-66
2021/03/11 04:00:17;;;;;;;20.63;12.35;;;6.10;99.90;;;;;;5137351;27;20712;-66
2021/03/11 04:02:44;;;;;;;19.60;12.02;;;6.20;99.90;;;;;;5137429;27;20184;-66
2021/03/11 04:05:12;;;;;;;20.35;12.75;;;6.20;99.90;;;;;;5137431;27;20198;-66
2021/03/11 04:07:38;;;;;;;16.77;11.55;;;6.10;99.90;;;;;;5137221;27;20176;-66
2021/03/11 04:10:07;;;;;;;18.17;10.90;;;6.20;99.90;;;;;;5137734;27;20219;-66
2021/03/11 04:12:34;;;;;;;22.58;11.90;;;6.20;99.90;;;;;;5137207;27;20630;-66
2021/03/11 04:15:00;;;;;;;18.58;11.32;;;6.20;99.90;;;;;;5136937;27;20195;-66
2021/03/11 04:17:28;;;;;;;15.60;11.30;;;6.20;99.90;;;;;;5137397;27;20185;-65
2021/03/11 04:19:56;;;;;;;20.15;12.38;;;6.20;99.90;;;;;;5137946;27;20627;-65
2021/03/11 04:22:21;;;;;;;19.73;12.40;;;6.10;99.90;;;;;;5137236;27;20234;-66
2021/03/11 04:24:48;;;;;;;20.77;12.07;;;6.20;99.90;;;;;;5137084;27;20178;-66
2021/03/11 04:27:14;;;;;;;19.10;11.65;;;6.20;99.90;;;;;;5136789;27;20173;-67
2021/03/11 04:29:40;;;;;;;17.87;11.47;;;6.20;99.90;;;;;;5137394;27;20214;-65
2021/03/11 04:32:07;;;;;;;25.65;13.63;;;6.20;99.90;;;;;;5137711;27;20768;-66
2021/03/11 04:34:33;;;;;;;16.73;11.60;;;6.20;99.90;;;;;;5136753;27;20171;-66
2021/03/11 04:36:59;;;;;;;21.30;13.02;;;6.20;99.90;;;;;;5136943;27;20673;-66
2021/03/11 04:39:25;;;;;;;19.98;11.00;;;6.20;99.90;;;;;;5137264;27;20194;-67
2021/03/11 04:41:52;;;;;;;16.60;11.40;;;6.20;99.90;;;;;;5136759;27;20643;-67
2021/03/11 04:44:21;;;;;;;16.15;11.10;;;6.20;99.90;;;;;;5136479;27;20430;-66
2021/03/11 04:46:54;;;;;;;18.70;11.70;;;6.20;99.90;;;;;;5134805;27;20182;-66
2021/03/11 04:49:21;;;;;;;15.02;11.30;;;6.30;99.90;;;;;;5135643;27;20177;-67
2021/03/11 04:51:48;;;;;;;20.90;12.80;;;6.30;99.90;;;;;;5135698;27;20285;-66
2021/03/11 04:54:13;;;;;;;18.27;11.10;;;6.30;99.90;;;;;;5136328;27;20168;-67
2021/03/11 04:56:42;;;;;;;13.83;9.57;;;6.30;99.90;;;;;;5136338;27;20618;-66
2021/03/11 04:59:09;;;;;;;17.20;10.98;;;6.40;99.90;;;;;;5135885;27;20446;-66
2021/03/11 05:01:47;;;;;;;14.20;9.77;;;6.40;99.90;;;;;;5136280;27;20249;-65
2021/03/11 05:04:13;;;;;;;16.67;11.00;;;6.40;99.90;;;;;;5136669;27;20601;-66
2021/03/11 05:06:39;;;;;;;13.98;10.27;;;6.30;99.90;;;;;;5135630;28;20513;-66
2021/03/11 05:09:05;;;;;;;13.57;9.27;;;6.40;99.90;;;;;;5136421;27;20181;-66
2021/03/11 05:11:30;;;;;;;16.23;10.63;;;6.40;99.90;;;;;;5136495;28;20267;-65
2021/03/11 05:14:04;;;;;;;14.30;10.23;;;6.40;99.90;;;;;;5135977;28;20504;-67
2021/03/11 05:16:30;;;;;;;14.55;9.60;;;6.30;99.90;;;;;;5136063;28;20279;-73
2021/03/11 05:18:56;;;;;;;16.20;13.37;;;6.40;99.90;;;;;;5135128;28;20193;-69
2021/03/11 05:21:21;;;;;;;13.60;9.60;;;6.40;99.90;;;;;;5135839;28;20193;-66
2021/03/11 05:23:48;;;;;;;16.63;10.57;;;6.40;99.90;;;;;;5135787;28;20175;-67
2021/03/11 05:26:13;;;;;;;13.10;8.05;;;6.40;99.90;;;;;;5136084;27;20183;-66
2021/03/11 05:28:39;;;;;;;10.93;8.10;;;6.40;99.90;;;;;;5136024;28;20522;-66
2021/03/11 05:31:07;;;;;;;15.20;8.83;;;6.40;99.90;;;;;;5135833;28;20357;-65
2021/03/11 05:33:33;;;;;;;14.05;8.73;;;6.40;99.90;;;;;;5134108;28;20648;-65
2021/03/11 05:35:58;;;;;;;16.50;9.83;;;6.60;99.90;;;;;;5135888;28;20173;-65
2021/03/11 05:38:24;;;;;;;14.60;9.73;;;6.60;99.90;;;;;;5135023;28;20184;-66
2021/03/11 05:40:53;;;;;;;15.17;9.40;;;6.60;99.90;;;;;;5134670;28;20191;-66
2021/03/11 05:43:19;;;;;;;13.70;9.05;;;6.70;99.90;;;;;;5134396;27;20195;-66
2021/03/11 05:45:45;;;;;;;14.93;9.77;;;6.80;99.90;;;;;;5134506;27;20181;-66
2021/03/11 05:48:17;;;;;;;12.88;8.60;;;6.70;99.90;;;;;;5138137;27;20514;-66
2021/03/11 05:50:43;;;;;;;13.68;9.20;;;6.80;99.90;;;;;;5137271;27;20215;-66
2021/03/11 05:53:11;;;;;;;13.68;10.05;;;6.70;99.90;;;;;;5139010;27;20174;-65
2021/03/11 05:55:41;;;;;;;16.13;9.05;;;6.60;99.90;;;;;;5139490;27;20632;-67
2021/03/11 05:58:08;;;;;;;15.40;8.98;;;6.70;99.90;;;;;;5138102;27;20274;-65
2021/03/11 06:00:34;;;;;;;12.93;8.60;;;6.80;99.90;;;;;;5138236;27;20259;-66
2021/03/11 06:03:05;;;;;;;11.32;8.45;;;6.80;99.90;;;;;;5138682;27;20509;-66
2021/03/11 06:05:31;;;;;;;14.15;8.40;;;6.70;99.90;;;;;;5139041;27;20652;-66
2021/03/11 06:07:58;;;;;;;14.07;8.50;;;6.60;99.90;;;;;;5138968;27;20205;-67
2021/03/11 06:10:31;;;;;;;13.63;8.88;;;6.80;99.90;;;;;;5138715;27;20201;-66
2021/03/11 06:12:59;;;;;;;11.07;6.90;;;6.80;99.90;;;;;;5137431;27;20550;-66
2021/03/11 06:15:29;;;;;;;12.67;8.90;;;6.70;99.90;;;;;;5138508;27;20171;-66
2021/03/11 06:17:57;;;;;;;11.23;7.90;;;6.80;99.90;;;;;;5138777;27;20173;-66
2021/03/11 06:20:23;;;;;;;14.18;8.30;;;6.70;99.90;;;;;;5139087;27;20191;-66
2021/03/11 06:22:48;;;;;;;11.97;8.23;;;6.80;99.90;;;;;;5138757;27;20177;-66
2021/03/11 06:25:16;;;;;;;14.33;8.57;;;6.80;99.90;;;;;;5138266;27;20183;-66
2021/03/11 06:27:41;;;;;;;10.70;7.53;;;6.80;99.90;;;;;;5138688;27;20176;-66
2021/03/11 06:30:27;;;;;;;13.80;8.83;;;6.80;99.90;;;;;;5139409;27;20241;-66
2021/03/11 06:32:54;;;;;;;12.45;7.85;;;6.70;99.90;;;;;;5139314;27;20412;-66
2021/03/11 06:35:20;;;;;;;11.25;7.32;;;6.90;99.90;;;;;;5139288;27;20218;-66
2021/03/11 06:37:48;;;;;;;11.30;9.90;;;6.80;99.90;;;;;;5138827;27;20249;-66
2021/03/11 06:40:19;;;;;;;8.80;7.03;;;6.90;99.90;;;;;;5138855;27;20458;-66
2021/03/11 06:42:49;;;;;;;12.55;8.25;;;6.90;99.90;;;;;;5138760;27;20199;-66
2021/03/11 06:45:26;;;;;;;10.20;7.47;;;6.90;99.90;;;;;;5136781;27;20194;-66
2021/03/11 06:48:12;;;;;;;11.60;8.23;;;6.90;99.90;;;;;;5134204;27;20191;-66
2021/03/11 06:50:37;;;;;;;9.70;7.28;;;6.80;99.90;;;;;;5138381;27;20204;-66
2021/03/11 06:53:04;;;;;;;10.17;7.20;;;6.80;99.90;;;;;;5138067;27;20179;-66
2021/03/11 06:55:30;;;;;;;10.98;7.18;;;6.90;99.90;;;;;;5134587;27;20244;-66
2021/03/11 06:58:13;;;;;;;12.80;7.90;;;6.90;99.90;;;;;;5133711;27;20185;-67
2021/03/11 07:00:38;;;;;;;10.82;6.88;;;7.00;99.90;;;;;;5128616;27;20201;-66
2021/03/11 07:03:04;;;;;;;11.03;8.43;;;7.10;99.90;;;;;;5133377;27;20225;-66
2021/03/11 07:05:37;;;;;;;9.77;6.93;;;7.10;99.90;;;;;;5125470;27;20213;-66
2021/03/11 07:08:05;;;;;;;8.52;7.25;;;7.10;99.90;;;;;;5137926;27;20796;-66
2021/03/11 07:10:31;;;;;;;9.50;7.32;;;7.20;99.90;;;;;;5133614;27;20533;-66
2021/03/11 07:12:59;;;;;;;14.80;9.17;;;7.20;99.90;;;;;;5132373;27;20185;-66
2021/03/11 07:15:27;;;;;;;12.05;7.90;;;7.30;99.90;;;;;;5136664;27;20445;-70
2021/03/11 07:17:54;;;;;;;10.77;7.35;;;7.30;99.90;;;;;;5129667;27;20168;-66
2021/03/11 07:20:28;;;;;;;11.73;8.00;;;7.40;99.90;;;;;;5132535;27;20192;-67
2021/03/11 07:23:03;;;;;;;10.38;7.45;;;7.40;99.90;;;;;;5116711;28;20225;-64
2021/03/11 07:25:34;;;;;;;12.23;7.88;;;7.50;99.90;;;;;;5116203;27;20206;-66
2021/03/11 07:28:02;;;;;;;9.15;6.85;;;7.50;99.90;;;;;;5124358;27;20606;-63
2021/03/11 07:30:29;;;;;;;9.65;6.80;;;7.50;99.90;;;;;;5124444;27;20206;-63
2021/03/11 07:33:02;;;;;;;12.20;8.27;;;7.60;99.90;;;;;;5130016;27;20518;-65
2021/03/11 07:35:34;;;;;;;11.02;7.20;;;7.60;99.90;;;;;;5135778;27;20546;-65
2021/03/11 07:38:02;;;;;;;13.85;7.47;;;7.70;99.90;;;;;;5133246;27;20621;-64
2021/03/11 07:40:32;;;;;;;12.52;8.95;;;7.80;99.90;;;;;;5135429;27;20217;-66
2021/03/11 07:42:58;;;;;;;11.25;7.13;;;7.80;99.90;;;;;;5135470;27;20177;-67
2021/03/11 07:45:24;;;;;;;10.13;7.60;;;7.80;99.90;;;;;;5132528;27;20193;-67
2021/03/11 07:47:51;;;;;;;10.60;7.33;;;7.90;99.90;;;;;;5135466;27;20430;-66
2021/03/11 07:50:17;;;;;;;11.60;8.18;;;7.90;99.90;;;;;;5135861;27;20492;-67
2021/03/11 07:52:43;;;;;;;11.55;7.78;;;7.90;99.90;;;;;;5136075;27;20238;-67
2021/03/11 07:55:10;;;;;;;13.97;8.83;;;7.90;99.90;;;;;;5136481;27;20193;-68
2021/03/11 07:57:40;;;;;;;12.68;7.05;;;8.00;99.90;;;;;;5136799;27;20181;-67
2021/03/11 08:00:07;;;;;;;9.48;7.05;;;8.00;99.90;;;;;;5135111;27;20186;-68
2021/03/11 08:02:35;;;;;;;12.90;7.88;;;8.00;99.90;;;;;;5130953;27;20196;-67
2021/03/11 08:05:00;;;;;;;13.52;8.02;;;8.00;99.90;;;;;;5128870;27;20267;-67
2021/03/11 08:07:28;;;;;;;10.90;7.70;;;8.10;99.90;;;;;;5134138;27;20196;-67
2021/03/11 08:09:57;;;;;;;13.63;8.60;;;8.00;99.90;;;;;;5132090;27;20232;-68
2021/03/11 08:12:26;;;;;;;12.20;9.07;;;8.20;99.90;;;;;;5133505;27;20609;-66
2021/03/11 08:14:53;;;;;;;11.55;7.40;;;8.40;99.90;;;;;;5125879;27;20181;-68
2021/03/11 08:17:36;;;;;;;10.85;8.95;;;8.40;99.90;;;;;;5125646;27;20178;-64
2021/03/11 08:20:04;;;;;;;12.82;8.73;;;8.50;99.90;;;;;;5135197;27;20177;-65
2021/03/11 08:22:52;;;;;;;13.35;8.45;;;8.50;99.90;;;;;;5131099;27;20189;-66
2021/03/11 08:25:33;;;;;;;10.88;7.10;;;8.70;99.90;;;;;;5133346;27;20186;-67
2021/03/11 08:28:00;;;;;;;11.23;7.50;;;8.80;99.90;;;;;;5135063;27;20557;-67
2021/03/11 08:30:40;;;;;;;9.80;8.38;;;8.70;99.90;;;;;;5134875;27;20244;-67
2021/03/11 08:33:14;;;;;;;10.63;8.15;;;8.80;99.90;;;;;;5127380;27;20551;-67
2021/03/11 08:35:45;;;;;;;8.45;6.70;;;8.80;99.90;;;;;;5132542;27;20300;-66
2021/03/11 08:38:19;;;;;;;10.23;8.10;;;8.80;99.90;;;;;;5133932;27;20178;-67
2021/03/11 08:40:59;;;;;;;11.68;7.28;;;8.90;99.90;;;;;;5133774;27;20649;-69
2021/03/11 08:43:39;;;;;;;9.18;7.38;;;8.80;99.90;;;;;;5134587;27;20157;-69
2021/03/11 08:46:06;;;;;;;10.30;8.25;;;8.90;99.90;;;;;;5127934;27;20585;-68
2021/03/11 08:48:44;;;;;;;10.57;7.55;;;9.00;99.90;;;;;;5131932;27;20637;-67
2021/03/11 08:51:30;;;;;;;10.77;7.00;;;9.00;99.90;;;;;;5134642;27;20202;-67
2021/03/11 08:53:58;;;;;;;11.80;6.95;;;9.30;99.90;;;;;;5134427;27;20264;-67
2021/03/11 08:56:27;;;;;;;11.50;7.13;;;9.40;99.90;;;;;;5133659;27;20185;-67
2021/03/11 08:59:01;;;;;;;11.55;7.10;;;9.30;99.90;;;;;;5133717;27;20241;-67
2021/03/11 09:01:35;;;;;;;9.95;7.40;;;9.30;99.90;;;;;;5134762;27;20188;-67
2021/03/11 09:04:03;;;;;;;10.20;7.05;;;9.30;99.90;;;;;;5134541;27;20190;-67
2021/03/11 09:06:52;;;;;;;8.70;6.97;;;9.50;99.90;;;;;;5134588;27;20265;-66
2021/03/11 09:09:37;;;;;;;11.15;7.82;;;9.60;99.90;;;;;;5133845;28;20213;-66
2021/03/11 09:12:18;;;;;;;9.65;6.75;;;9.90;99.90;;;;;;5134461;28;20200;-65
2021/03/11 09:14:57;;;;;;;8.82;6.93;;;10.10;99.90;;;;;;5134317;27;20182;-68
2021/03/11 09:17:27;;;;;;;9.57;6.32;;;10.20;99.90;;;;;;5116100;28;20557;-66
2021/03/11 09:20:05;;;;;;;11.80;7.72;;;10.30;68.30;;;;;;5136226;27;20540;-66
2021/03/11 09:22:39;;;;;;;8.05;6.07;;;10.60;24.30;;;;;;5137844;27;20185;-67
2021/03/11 09:25:04;;;;;;;10.00;7.25;;;10.70;1.00;;;;;;5138191;27;20184;-69
2021/03/11 09:27:31;;;;;;;13.37;7.87;;;10.60;1.00;;;;;;5138521;27;20186;-65
2021/03/11 09:29:59;;;;;;;8.68;6.80;;;10.70;1.00;;;;;;5130662;27;20213;-64
2021/03/11 09:32:30;;;;;;;8.45;5.97;;;11.00;1.00;;;;;;5134596;27;20261;-68
2021/03/11 09:34:57;;;;;;;8.68;5.53;;;11.20;1.00;;;;;;5137582;27;20235;-64
2021/03/11 09:37:45;;;;;;;9.65;6.97;;;11.10;1.00;;;;;;5135372;27;20623;-68
2021/03/11 09:40:12;;;;;;;9.25;5.60;;;11.00;1.00;;;;;;5130832;27;20234;-65
2021/03/11 09:43:16;;;;;;;8.68;6.35;;;10.90;1.00;;;;;;5127990;27;20181;-65
2021/03/11 09:45:48;;;;;;;8.05;6.57;;;11.00;1.00;;;;;;5126963;27;20586;-68
2021/03/11 09:48:23;;;;;;;10.52;6.63;;;11.10;1.00;;;;;;5132793;27;20286;-68
2021/03/11 09:51:11;;;;;;;7.47;5.55;;;11.20;1.00;;;;;;5137461;27;20201;-68
2021/03/11 09:53:38;;;;;;;6.53;5.65;;;11.20;1.00;;;;;;5125782;27;20348;-65
2021/03/11 09:56:05;;;;;;;6.78;5.55;;;11.30;1.00;;;;;;5137910;27;20208;-65
2021/03/11 09:58:31;;;;;;;9.38;6.03;;;11.40;1.00;;;;;;5138207;27;20174;-68
2021/03/11 10:00:57;;;;;;;6.93;5.80;;;11.40;1.00;;;;;;5132835;27;20182;-68
2021/03/11 10:03:28;;;;;;;5.70;5.10;;;11.50;1.00;;;;;;5132910;27;20514;-66
2021/03/11 10:06:06;;;;;;;5.88;4.75;;;11.30;99.90;;;;;;5130121;27;20649;-66
2021/03/11 10:08:37;;;;;;;6.18;5.00;;;11.40;99.90;;;;;;5132854;27;20186;-64
2021/03/11 10:11:09;;;;;;;5.38;4.60;;;11.50;99.90;;;;;;5133484;27;20221;-65
2021/03/11 10:13:46;;;;;;;6.25;4.93;;;11.60;99.90;;;;;;5130753;27;20207;-65
2021/03/11 10:16:12;;;;;;;7.22;5.40;;;11.70;99.90;;;;;;5136993;27;20528;-64
2021/03/11 10:18:57;;;;;;;5.90;5.17;;;12.10;1.00;;;;;;5134567;27;20185;-65
2021/03/11 10:21:23;;;;;;;5.60;5.00;;;12.40;1.00;;;;;;5130400;27;20279;-65
2021/03/11 10:23:51;;;;;;;6.43;5.13;;;12.60;1.00;;;;;;5135355;27;20218;-65
2021/03/11 10:26:36;;;;;;;5.90;4.57;;;12.80;99.90;;;;;;5136612;27;20561;-65
2021/03/11 10:29:05;;;;;;;5.47;4.03;;;12.90;1.00;;;;;;5133768;27;20199;-64
2021/03/11 10:31:32;;;;;;;6.75;4.47;;;12.70;99.90;;;;;;5136042;27;20206;-64
2021/03/11 10:34:03;;;;;;;6.20;4.63;;;12.70;1.00;;;;;;5136000;27;20186;-64
2021/03/11 10:36:29;;;;;;;6.82;4.20;;;12.60;99.90;;;;;;5137253;27;20272;-66
2021/03/11 10:39:04;;;;;;;5.00;4.10;;;12.40;1.00;;;;;;5134079;27;20214;-64
2021/03/11 10:41:31;;;;;;;5.85;4.88;;;12.30;99.90;;;;;;5137281;27;20471;-65
2021/03/11 10:44:10;;;;;;;4.47;4.07;;;12.50;1.00;;;;;;5135571;27;20614;-64
2021/03/11 10:46:36;;;;;;;7.10;3.97;;;12.60;1.00;;;;;;5127857;27;20194;-64
2021/03/11 10:49:02;;;;;;;5.30;3.27;;;12.60;1.00;;;;;;5136859;27;20181;-65
2021/03/11 10:51:30;;;;;;;5.40;3.57;;;12.40;99.90;;;;;;5135095;27;20783;-64
2021/03/11 10:53:58;;;;;;;5.82;3.88;;;12.10;1.00;;;;;;5130985;27;20639;-64
2021/03/11 10:56:24;;;;;;;7.80;3.33;;;12.20;99.90;;;;;;5136503;27;20175;-63
2021/03/11 10:59:00;;;;;;;3.80;3.30;;;12.30;99.90;;;;;;5136728;27;20514;-63
2021/03/11 11:01:28;;;;;;;3.58;2.70;;;12.00;99.90;;;;;;5129986;27;20198;-66
2021/03/11 11:03:55;;;;;;;6.30;3.30;;;11.80;99.90;;;;;;5130926;27;20581;-66
2021/03/11 11:06:22;;;;;;;3.10;2.10;;;11.90;1.00;;;;;;5136234;27;20277;-66
2021/03/11 11:08:48;;;;;;;3.35;2.35;;;11.40;99.90;;;;;;5136180;27;20182;-65
2021/03/11 11:11:15;;;;;;;2.33;1.70;;;11.20;5.90;;;;;;5132819;27;20221;-65
2021/03/11 11:13:40;;;;;;;4.25;1.50;;;11.00;1.00;;;;;;5135953;27;20182;-66
2021/03/11 11:16:06;;;;;;;2.33;1.70;;;10.90;99.90;;;;;;5134141;27;20236;-65
2021/03/11 11:18:32;;;;;;;2.07;1.30;;;10.50;99.90;;;;;;5132289;27;20515;-65
2021/03/11 11:20:59;;;;;;;1.70;1.60;;;10.20;1.00;;;;;;5135970;27;20667;-65
2021/03/11 11:23:25;;;;;;;1.90;1.10;;;9.80;99.90;;;;;;5135747;27;20220;-65
2021/03/11 11:25:50;;;;;;;3.87;1.20;;;9.80;1.00;;;;;;5133790;27;20580;-65
2021/03/11 11:28:16;;;;;;;1.17;1.07;;;10.00;1.00;;;;;;5131883;27;20653;-68
2021/03/11 11:30:42;;;;;;;3.00;1.30;;;10.10;1.00;;;;;;5135559;27;20288;-68
2021/03/11 11:33:08;;;;;;;1.23;1.10;;;10.50;1.00;;;;;;5129578;27;20618;-67
2021/03/11 11:35:33;;;;;;;3.50;2.47;;;10.80;99.90;;;;;;5129937;27;20186;-64
2021/03/11 11:37:59;;;;;;;1.87;1.43;;;10.80;1.00;;;;;;5132333;27;20443;-64
2021/03/11 11:40:25;;;;;;;3.50;2.60;;;11.20;1.00;;;;;;5135593;27;20183;-64
2021/03/11 11:42:50;;;;;;;4.77;3.13;;;11.50;99.90;;;;;;5135597;27;20259;-64
2021/03/11 11:45:16;;;;;;;3.00;2.70;;;11.70;99.90;;;;;;5135090;27;20500;-67
2021/03/11 11:47:43;;;;;;;2.67;2.27;;;11.30;1.00;;;;;;5134715;27;20216;-65
2021/03/11 11:50:10;;;;;;;4.15;2.58;;;11.00;1.00;;;;;;5133611;27;20461;-66
2021/03/11 11:52:36;;;;;;;3.80;2.22;;;10.70;99.90;;;;;;5124827;27;20239;-65
2021/03/11 11:55:07;;;;;;;6.53;2.20;;;10.30;1.00;;;;;;5136642;27;20178;-66
2021/03/11 11:57:33;;;;;;;4.03;1.85;;;10.10;1.00;;;;;;5137166;27;20214;-61
2021/03/11 11:59:58;;;;;;;4.37;1.77;;;10.10;1.00;;;;;;5135039;27;20245;-60
2021/03/11 12:02:24;;;;;;;3.27;2.00;;;10.20;1.00;;;;;;5136253;27;20175;-60
2021/03/11 12:04:50;;;;;;;4.00;2.40;;;10.40;1.00;;;;;;5135726;27;20222;-61
2021/03/11 12:07:15;;;;;;;2.50;2.13;;;10.70;1.00;;;;;;5136045;27;20429;-60
2021/03/11 12:09:41;;;;;;;3.37;2.30;;;10.90;1.00;;;;;;5135826;27;20253;-60
2021/03/11 12:12:07;;;;;;;5.40;2.80;;;11.20;1.00;;;;;;5135990;27;20181;-60
2021/03/11 12:14:33;;;;;;;10.30;3.05;;;11.40;1.00;;;;;;5135745;27;20239;-63
2021/03/11 12:16:59;;;;;;;4.70;2.50;;;11.80;1.00;;;;;;5135933;27;20201;-63
2021/03/11 12:19:25;;;;;;;6.77;3.07;;;12.30;1.00;;;;;;5136009;27;20482;-63
2021/03/11 12:21:50;;;;;;;7.57;3.10;;;12.60;99.90;;;;;;5135396;27;20183;-63
2021/03/11 12:24:16;;;;;;;4.70;2.80;;;13.00;1.00;;;;;;5135391;27;20615;-60
2021/03/11 12:26:42;;;;;;;5.67;2.50;;;13.20;1.00;;;;;;5135715;27;20425;-60
2021/03/11 12:29:07;;;;;;;4.40;3.33;;;13.20;1.00;;;;;;5136103;27;20175;-62
2021/03/11 12:31:33;;;;;;;6.40;3.27;;;13.20;99.90;;;;;;5135736;27;20217;-63
2021/03/11 12:33:59;;;;;;;5.67;2.70;;;13.10;99.90;;;;;;5134820;27;20269;-63
2021/03/11 12:36:25;;;;;;;5.23;2.07;;;13.00;1.00;;;;;;5133504;27;20288;-72
2021/03/11 12:38:52;;;;;;;6.75;2.45;;;13.00;1.00;;;;;;5135390;27;20177;-69
2021/03/11 12:41:19;;;;;;;7.57;2.25;;;12.80;99.90;;;;;;5135258;27;20178;-69
2021/03/11 12:43:46;;;;;;;9.50;2.40;;;12.70;1.00;;;;;;5134012;27;20232;-67
2021/03/11 12:46:12;;;;;;;4.75;2.30;;;12.70;92.60;;;;;;5135255;27;20178;-69
2021/03/11 12:48:37;;;;;;;4.22;1.83;;;12.30;1.00;;;;;;5134112;27;20269;-67
2021/03/11 12:51:03;;;;;;;5.73;2.00;;;11.80;1.00;;;;;;5135344;27;20285;-63
2021/03/11 12:53:29;;;;;;;10.40;2.63;;;11.50;1.00;;;;;;5135155;27;20174;-68
2021/03/11 12:55:54;;;;;;;6.00;2.40;;;11.30;1.00;;;;;;5134943;27;20420;-65